createdAt,value
2019-02-02T00:01:57.015Z,99.90
2019-02-02T00:04:23.520Z,99.90
2019-02-02T00:06:52.173Z,99.90
2019-02-02T00:09:18.736Z,99.90
2019-02-02T00:11:45.341Z,99.90
2019-02-02T00:14:12.042Z,99.90
2019-02-02T00:16:38.545Z,99.90
2019-02-02T00:19:05.180Z,99.90
2019-02-02T00:21:31.891Z,99.90
2019-02-02T00:23:58.436Z,99.90
2019-02-02T00:26:25.131Z,99.90
2019-02-02T00:28:51.807Z,99.90
2019-02-02T00:31:18.333Z,99.90
2019-02-02T00:33:45.021Z,99.90
2019-02-02T00:36:11.796Z,99.90
2019-02-02T00:38:38.331Z,99.90
2019-02-02T00:41:05.218Z,99.90
2019-02-02T00:43:31.902Z,99.90
2019-02-02T00:45:59.217Z,99.90
2019-02-02T00:48:25.895Z,99.90
2019-02-02T00:50:52.452Z,99.90
2019-02-02T00:53:19.182Z,99.90
2019-02-02T00:55:45.748Z,99.90
2019-02-02T00:58:12.289Z,99.90
2019-02-02T01:00:40.186Z,99.90
2019-02-02T01:03:06.929Z,99.90
2019-02-02T01:05:34.689Z,99.90
2019-02-02T01:08:01.339Z,99.90
2019-02-02T01:10:37.774Z,99.90
2019-02-02T01:13:04.558Z,99.90
2019-02-02T01:15:31.186Z,99.90
2019-02-02T01:17:58.884Z,99.90
2019-02-02T01:20:25.539Z,99.90
2019-02-02T01:22:52.210Z,99.90
2019-02-02T01:25:18.939Z,99.90
2019-02-02T01:27:45.600Z,99.90
2019-02-02T01:30:20.304Z,99.90
2019-02-02T01:32:46.999Z,99.90
2019-02-02T01:35:15.930Z,99.90
2019-02-02T01:37:42.534Z,99.90
2019-02-02T01:40:12.775Z,99.90
2019-02-02T01:42:39.361Z,99.90
2019-02-02T01:45:09.428Z,99.90
2019-02-02T01:47:35.980Z,99.90
2019-02-02T01:50:03.872Z,99.90
2019-02-02T01:52:30.538Z,99.90
2019-02-02T01:54:57.180Z,99.90
2019-02-02T01:57:23.839Z,99.90
2019-02-02T01:59:50.455Z,99.90
2019-02-02T02:02:17.040Z,99.90
2019-02-02T02:04:43.571Z,99.90
2019-02-02T02:07:10.044Z,99.90
2019-02-02T02:09:36.650Z,99.90
2019-02-02T02:12:03.314Z,99.90
2019-02-02T02:14:29.826Z,99.90
2019-02-02T02:16:57.115Z,99.90
2019-02-02T02:19:23.826Z,99.90
2019-02-02T02:21:50.537Z,99.90
2019-02-02T02:24:17.108Z,99.90
2019-02-02T02:26:43.751Z,99.90
2019-02-02T02:29:10.502Z,99.90
2019-02-02T02:31:37.321Z,99.90
2019-02-02T02:34:13.194Z,99.90
2019-02-02T02:36:39.933Z,99.90
2019-02-02T02:39:07.093Z,99.90
2019-02-02T02:41:33.753Z,99.90
2019-02-02T02:44:00.309Z,99.90
2019-02-02T02:46:26.946Z,99.90
2019-02-02T02:48:53.436Z,99.90
2019-02-02T02:51:20.014Z,99.90
2019-02-02T02:53:46.610Z,99.90
2019-02-02T02:56:13.176Z,99.90
2019-02-02T02:58:43.017Z,99.90
2019-02-02T03:01:09.713Z,99.90
2019-02-02T03:03:36.310Z,99.90
2019-02-02T03:06:03.065Z,99.90
2019-02-02T03:08:29.687Z,99.90
2019-02-02T03:10:56.298Z,99.90
2019-02-02T03:13:22.778Z,99.90
2019-02-02T03:15:49.399Z,99.90
2019-02-02T03:18:15.970Z,99.90
2019-02-02T03:20:42.761Z,99.90
2019-02-02T03:23:09.193Z,99.90
2019-02-02T03:25:35.681Z,99.90
2019-02-02T03:28:02.350Z,99.90
2019-02-02T03:30:29.015Z,99.90
2019-02-02T03:32:55.616Z,99.90
2019-02-02T03:35:23.161Z,99.90
2019-02-02T03:37:50.007Z,99.90
2019-02-02T03:40:18.585Z,99.90
2019-02-02T03:42:45.269Z,99.90
2019-02-02T03:45:14.669Z,99.90
2019-02-02T03:47:41.383Z,99.90
2019-02-02T03:50:09.792Z,99.90
2019-02-02T03:52:36.600Z,99.90
2019-02-02T03:55:05.525Z,99.90
2019-02-02T03:57:32.153Z,99.90
2019-02-02T03:59:58.873Z,99.90
2019-02-02T04:02:25.617Z,99.90
2019-02-02T04:04:52.188Z,99.90
2019-02-02T04:07:18.874Z,99.90
2019-02-02T04:09:45.545Z,99.90
2019-02-02T04:12:12.158Z,99.90
2019-02-02T04:14:38.682Z,99.90
2019-02-02T04:17:05.307Z,99.90
2019-02-02T04:19:31.867Z,99.90
2019-02-02T04:21:58.586Z,99.90
2019-02-02T04:24:25.325Z,99.90
2019-02-02T04:26:51.969Z,99.90
2019-02-02T04:29:18.729Z,99.90
2019-02-02T04:31:45.276Z,99.90
2019-02-02T04:34:11.878Z,99.90
2019-02-02T04:36:38.405Z,99.90
2019-02-02T04:39:06.000Z,99.90
2019-02-02T04:41:32.421Z,99.90
2019-02-02T04:43:59.283Z,99.90
2019-02-02T04:46:25.968Z,99.90
2019-02-02T04:48:52.515Z,99.90
2019-02-02T04:51:19.103Z,99.90
2019-02-02T04:53:45.913Z,99.90
2019-02-02T04:56:12.329Z,99.90
2019-02-02T04:58:38.772Z,99.90
2019-02-02T05:01:05.336Z,99.90
2019-02-02T05:03:31.977Z,99.90
2019-02-02T05:05:58.703Z,99.90
2019-02-02T05:08:25.274Z,99.90
2019-02-02T05:10:51.965Z,99.90
2019-02-02T05:13:18.600Z,99.90
2019-02-02T05:15:45.202Z,99.90
2019-02-02T05:18:11.708Z,99.90
2019-02-02T05:20:38.398Z,99.90
2019-02-02T05:23:04.965Z,99.90
2019-02-02T05:25:31.559Z,99.90
2019-02-02T05:27:58.194Z,99.90
2019-02-02T05:30:27.076Z,99.90
2019-02-02T05:32:53.652Z,99.90
2019-02-02T05:35:20.124Z,99.90
2019-02-02T05:37:46.673Z,99.90
2019-02-02T05:40:18.876Z,99.90
2019-02-02T05:42:45.368Z,99.90
2019-02-02T05:45:14.271Z,99.90
2019-02-02T05:47:40.892Z,99.90
2019-02-02T05:50:10.631Z,99.90
2019-02-02T05:52:37.423Z,99.90
2019-02-02T05:55:07.321Z,99.90
2019-02-02T05:57:33.982Z,99.90
2019-02-02T06:00:00.553Z,99.90
2019-02-02T06:02:27.128Z,99.90
2019-02-02T06:04:53.717Z,99.90
2019-02-02T06:07:20.376Z,99.90
2019-02-02T06:09:47.049Z,99.90
2019-02-02T06:12:13.610Z,99.90
2019-02-02T06:14:40.325Z,99.90
2019-02-02T06:17:06.897Z,99.90
2019-02-02T06:19:33.556Z,99.90
2019-02-02T06:22:00.070Z,99.90
2019-02-02T06:24:26.594Z,99.90
2019-02-02T06:26:52.935Z,99.90
2019-02-02T06:29:19.440Z,99.90
2019-02-02T06:31:46.315Z,99.90
2019-02-02T06:34:12.898Z,99.90
2019-02-02T06:36:39.439Z,99.90
2019-02-02T06:39:06.216Z,99.90
2019-02-02T06:41:32.743Z,99.90
2019-02-02T06:43:59.233Z,99.90
2019-02-02T06:46:25.612Z,99.90
2019-02-02T06:48:52.178Z,99.90
2019-02-02T06:51:18.715Z,99.90
2019-02-02T06:53:45.313Z,99.90
2019-02-02T06:56:11.845Z,99.90
2019-02-02T06:58:38.375Z,99.90
2019-02-02T07:01:04.976Z,99.90
2019-02-02T07:03:31.533Z,99.90
2019-02-02T07:06:04.222Z,99.90
2019-02-02T07:08:30.873Z,99.90
2019-02-02T07:10:57.438Z,99.90
2019-02-02T07:13:24.018Z,99.90
2019-02-02T07:15:50.507Z,99.90
2019-02-02T07:18:17.072Z,99.90
2019-02-02T07:20:43.647Z,99.90
2019-02-02T07:23:10.321Z,99.90
2019-02-02T07:25:36.803Z,99.90
2019-02-02T07:28:03.365Z,99.90
2019-02-02T07:30:29.971Z,99.90
2019-02-02T07:32:56.504Z,99.90
2019-02-02T07:35:23.091Z,99.90
2019-02-02T07:37:49.655Z,99.90
2019-02-02T07:40:17.652Z,99.90
2019-02-02T07:42:44.533Z,99.90
2019-02-02T07:45:14.813Z,99.90
2019-02-02T07:47:41.393Z,99.90
2019-02-02T07:50:10.925Z,99.90
2019-02-02T07:52:37.489Z,99.90
2019-02-02T07:55:05.629Z,99.90
2019-02-02T07:57:32.206Z,99.90
2019-02-02T07:59:58.618Z,99.90
2019-02-02T08:02:25.151Z,99.90
2019-02-02T08:04:51.813Z,99.90
2019-02-02T08:07:18.456Z,99.90
2019-02-02T08:09:44.963Z,99.90
2019-02-02T08:12:11.514Z,99.90
2019-02-02T08:14:38.008Z,99.90
2019-02-02T08:17:04.693Z,99.90
2019-02-02T08:19:31.429Z,99.90
2019-02-02T08:21:59.052Z,99.90
2019-02-02T08:24:25.664Z,99.90
2019-02-02T08:26:52.276Z,99.90
2019-02-02T08:29:18.833Z,99.90
2019-02-02T08:31:45.376Z,99.90
2019-02-02T08:34:11.973Z,99.90
2019-02-02T08:36:38.703Z,99.90
2019-02-02T08:39:07.174Z,99.90
2019-02-02T08:41:33.813Z,99.90
2019-02-02T08:44:00.392Z,99.90
2019-02-02T08:46:27.010Z,99.90
2019-02-02T08:48:53.493Z,99.90
2019-02-02T08:51:20.061Z,99.90
2019-02-02T08:53:46.618Z,99.90
2019-02-02T08:56:13.398Z,99.90
2019-02-02T08:58:40.007Z,99.90
2019-02-02T09:01:06.610Z,99.90
2019-02-02T09:03:35.201Z,99.90
2019-02-02T09:06:01.665Z,99.90
2019-02-02T09:08:28.261Z,99.90
2019-02-02T09:10:54.679Z,99.90
2019-02-02T09:13:21.142Z,99.90
2019-02-02T09:15:47.661Z,99.90
2019-02-02T09:18:14.278Z,99.90
2019-02-02T09:20:40.824Z,99.90
2019-02-02T09:23:08.666Z,99.90
2019-02-02T09:25:35.227Z,99.90
2019-02-02T09:28:01.699Z,99.90
2019-02-02T09:30:33.160Z,99.90
2019-02-02T09:32:59.694Z,99.90
2019-02-02T09:35:27.698Z,99.90
2019-02-02T09:37:54.375Z,99.90
2019-02-02T09:40:20.910Z,99.90
2019-02-02T09:42:47.658Z,99.90
2019-02-02T09:45:16.092Z,99.90
2019-02-02T09:47:42.758Z,99.90
2019-02-02T09:50:12.519Z,99.90
2019-02-02T09:52:39.158Z,99.90
2019-02-02T09:55:11.475Z,99.90
2019-02-02T09:57:37.997Z,99.90
2019-02-02T10:00:10.210Z,99.90
2019-02-02T10:02:36.909Z,99.90
2019-02-02T10:05:05.125Z,99.90
2019-02-02T10:07:31.857Z,99.90
2019-02-02T10:09:58.466Z,99.90
2019-02-02T10:12:27.946Z,99.90
2019-02-02T10:14:54.664Z,99.90
2019-02-02T10:17:21.257Z,99.90
2019-02-02T10:19:47.824Z,99.40
2019-02-02T10:22:14.273Z,99.40
2019-02-02T10:24:40.878Z,99.70
2019-02-02T10:27:07.387Z,99.90
2019-02-02T10:29:33.877Z,99.90
2019-02-02T10:32:00.568Z,99.90
2019-02-02T10:34:27.159Z,99.90
2019-02-02T10:36:53.931Z,99.90
2019-02-02T10:39:20.486Z,98.60
2019-02-02T10:41:46.959Z,98.10
2019-02-02T10:44:13.561Z,99.50
2019-02-02T10:46:40.272Z,99.10
2019-02-02T10:49:06.832Z,98.70
2019-02-02T10:51:33.513Z,98.60
2019-02-02T10:54:00.098Z,98.20
2019-02-02T10:56:26.704Z,98.40
2019-02-02T10:58:53.384Z,99.20
2019-02-02T11:01:20.024Z,99.40
2019-02-02T11:03:46.571Z,99.40
2019-02-02T11:06:13.077Z,99.80
2019-02-02T11:08:39.848Z,99.90
2019-02-02T11:11:06.562Z,99.90
2019-02-02T11:13:33.142Z,99.90
2019-02-02T11:15:59.882Z,99.90
2019-02-02T11:18:26.524Z,99.90
2019-02-02T11:20:53.528Z,99.90
2019-02-02T11:23:20.171Z,99.90
2019-02-02T11:25:46.782Z,99.90
2019-02-02T11:28:13.526Z,99.90
2019-02-02T11:30:40.199Z,99.80
2019-02-02T11:33:06.760Z,99.50
2019-02-02T11:35:33.460Z,99.40
2019-02-02T11:37:59.915Z,98.90
2019-02-02T11:40:31.172Z,97.80
2019-02-02T11:42:58.349Z,97.00
2019-02-02T11:45:24.944Z,95.00
2019-02-02T11:47:51.536Z,94.70
2019-02-02T11:50:19.408Z,92.70
2019-02-02T11:52:45.963Z,93.30
2019-02-02T11:55:17.422Z,92.50
2019-02-02T11:57:44.212Z,93.10
2019-02-02T12:00:25.933Z,93.60
2019-02-02T12:02:52.553Z,94.40
2019-02-02T12:05:19.109Z,94.70
2019-02-02T12:07:45.846Z,94.10
2019-02-02T12:10:15.296Z,94.70
2019-02-02T12:12:42.404Z,94.40
2019-02-02T12:15:11.871Z,94.80
2019-02-02T12:17:38.545Z,95.00
2019-02-02T12:20:08.683Z,94.70
2019-02-02T12:22:35.258Z,94.80
2019-02-02T12:25:03.050Z,95.30
2019-02-02T12:27:29.779Z,95.10
2019-02-02T12:29:57.906Z,95.10
2019-02-02T12:32:26.772Z,95.00
2019-02-02T12:34:53.079Z,94.80
2019-02-02T12:37:19.520Z,94.00
2019-02-02T12:39:46.095Z,94.50
2019-02-02T12:42:12.768Z,94.60
2019-02-02T12:44:39.439Z,94.70
2019-02-02T12:47:06.317Z,94.40
2019-02-02T12:49:33.104Z,94.40
2019-02-02T12:51:59.742Z,94.40
2019-02-02T12:54:26.235Z,93.30
2019-02-02T12:56:52.837Z,93.00
2019-02-02T12:59:19.392Z,93.50
2019-02-02T13:01:46.169Z,93.50
2019-02-02T13:04:12.747Z,93.60
2019-02-02T13:06:39.322Z,94.10
2019-02-02T13:09:07.030Z,94.70
2019-02-02T13:11:33.457Z,93.70
2019-02-02T13:14:00.193Z,94.40
2019-02-02T13:16:26.626Z,94.60
2019-02-02T13:18:53.214Z,94.90
2019-02-02T13:21:19.800Z,94.90
2019-02-02T13:23:46.469Z,94.50
2019-02-02T13:26:13.061Z,94.40
2019-02-02T13:28:39.639Z,94.30
2019-02-02T13:31:06.488Z,94.90
2019-02-02T13:33:33.026Z,94.50
2019-02-02T13:35:59.625Z,94.10
2019-02-02T13:38:26.034Z,94.70
2019-02-02T13:40:52.532Z,94.30
2019-02-02T13:43:19.143Z,94.30
2019-02-02T13:45:45.600Z,93.40
2019-02-02T13:48:12.166Z,93.90
2019-02-02T13:50:38.930Z,94.20
2019-02-02T13:53:05.615Z,93.60
2019-02-02T13:55:32.220Z,94.10
2019-02-02T13:57:58.545Z,93.20
2019-02-02T14:00:30.513Z,93.50
2019-02-02T14:03:02.940Z,94.20
2019-02-02T14:05:30.062Z,93.40
2019-02-02T14:07:56.731Z,93.80
2019-02-02T14:10:25.076Z,93.70
2019-02-02T14:12:51.617Z,94.10
2019-02-02T14:15:18.347Z,93.90
2019-02-02T14:17:45.187Z,94.10
2019-02-02T14:20:12.802Z,94.00
2019-02-02T14:22:39.458Z,93.90
2019-02-02T14:25:07.977Z,93.90
2019-02-02T14:27:34.490Z,94.10
2019-02-02T14:30:01.117Z,94.30
2019-02-02T14:32:27.704Z,94.30
2019-02-02T14:34:54.151Z,94.40
2019-02-02T14:37:20.935Z,94.30
2019-02-02T14:39:49.339Z,94.20
2019-02-02T14:42:18.324Z,93.80
2019-02-02T14:44:44.275Z,93.80
2019-02-02T14:47:11.067Z,93.50
2019-02-02T14:49:38.780Z,93.10
2019-02-02T14:52:05.525Z,92.60
2019-02-02T14:54:32.098Z,92.70
2019-02-02T14:56:58.659Z,93.10
2019-02-02T14:59:25.271Z,93.10
2019-02-02T15:01:51.694Z,92.90
2019-02-02T15:04:18.386Z,92.50
2019-02-02T15:06:44.786Z,92.40
2019-02-02T15:09:11.371Z,92.40
2019-02-02T15:11:37.923Z,91.90
2019-02-02T15:14:04.515Z,92.30
2019-02-02T15:16:30.939Z,92.40
2019-02-02T15:18:57.560Z,92.50
2019-02-02T15:21:24.134Z,92.80
2019-02-02T15:23:50.746Z,92.40
2019-02-02T15:26:18.699Z,92.60
2019-02-02T15:28:48.403Z,92.80
2019-02-02T15:31:16.569Z,92.80
2019-02-02T15:33:46.318Z,93.00
2019-02-02T15:36:14.082Z,93.00
2019-02-02T15:38:41.175Z,92.80
2019-02-02T15:41:08.316Z,93.00
2019-02-02T15:43:35.449Z,93.20
2019-02-02T15:46:02.257Z,93.20
2019-02-02T15:48:28.829Z,93.40
2019-02-02T15:50:55.373Z,93.60
2019-02-02T15:53:21.975Z,93.80
2019-02-02T15:55:48.645Z,94.20
2019-02-02T15:58:15.252Z,94.40
2019-02-02T16:00:41.787Z,94.60
2019-02-02T16:03:08.469Z,94.60
2019-02-02T16:05:35.124Z,94.50
2019-02-02T16:08:04.771Z,94.60
2019-02-02T16:10:31.885Z,94.70
2019-02-02T16:12:58.530Z,94.60
2019-02-02T16:15:25.201Z,94.60
2019-02-02T16:17:51.725Z,94.60
2019-02-02T16:20:21.359Z,94.60
2019-02-02T16:22:48.056Z,94.80
2019-02-02T16:25:14.623Z,94.90
2019-02-02T16:27:41.238Z,94.90
2019-02-02T16:30:14.197Z,94.80
2019-02-02T16:32:40.878Z,94.80
2019-02-02T16:35:09.755Z,95.10
2019-02-02T16:37:36.523Z,95.10
2019-02-02T16:40:06.817Z,94.90
2019-02-02T16:42:35.908Z,95.10
2019-02-02T16:45:01.916Z,94.90
2019-02-02T16:47:28.560Z,95.00
2019-02-02T16:49:55.145Z,95.00
2019-02-02T16:52:21.780Z,94.80
2019-02-02T16:54:48.340Z,94.90
2019-02-02T16:57:14.805Z,94.80
2019-02-02T16:59:41.406Z,94.70
2019-02-02T17:02:07.985Z,94.90
2019-02-02T17:04:34.552Z,94.80
2019-02-02T17:07:01.418Z,95.00
2019-02-02T17:09:28.201Z,95.00
2019-02-02T17:11:54.743Z,94.80
2019-02-02T17:14:21.381Z,94.90
2019-02-02T17:16:47.915Z,94.90
2019-02-02T17:19:14.555Z,94.90
2019-02-02T17:21:41.236Z,95.00
2019-02-02T17:24:07.804Z,95.10
2019-02-02T17:26:34.378Z,95.20
2019-02-02T17:29:01.152Z,95.30
2019-02-02T17:31:27.789Z,95.50
2019-02-02T17:33:54.329Z,95.50
2019-02-02T17:36:20.960Z,95.70
2019-02-02T17:38:47.645Z,95.80
2019-02-02T17:41:14.242Z,95.60
2019-02-02T17:43:40.791Z,95.40
2019-02-02T17:46:08.279Z,95.40
2019-02-02T17:48:34.880Z,95.80
2019-02-02T17:51:01.490Z,95.80
2019-02-02T17:53:27.934Z,96.00
2019-02-02T17:55:54.446Z,96.00
2019-02-02T17:58:21.102Z,95.40
2019-02-02T18:00:52.636Z,95.30
2019-02-02T18:03:19.173Z,95.10
2019-02-02T18:05:45.643Z,95.20
2019-02-02T18:08:12.263Z,95.20
2019-02-02T18:10:38.979Z,95.30
2019-02-02T18:13:05.576Z,95.30
2019-02-02T18:15:32.236Z,95.30
2019-02-02T18:17:59.040Z,95.30
2019-02-02T18:20:25.632Z,95.40
2019-02-02T18:22:52.460Z,95.90
2019-02-02T18:25:19.001Z,96.10
2019-02-02T18:27:45.691Z,96.00
2019-02-02T18:30:17.483Z,95.90
2019-02-02T18:32:44.137Z,95.90
2019-02-02T18:35:13.031Z,95.90
2019-02-02T18:37:39.954Z,95.80
2019-02-02T18:40:09.438Z,95.90
2019-02-02T18:42:35.905Z,95.90
2019-02-02T18:45:04.702Z,95.80
2019-02-02T18:47:31.297Z,95.80
2019-02-02T18:49:58.024Z,96.10
2019-02-02T18:52:24.746Z,96.30
2019-02-02T18:54:51.325Z,96.00
2019-02-02T18:57:17.890Z,95.80
2019-02-02T18:59:44.559Z,96.00
2019-02-02T19:02:11.128Z,96.20
2019-02-02T19:04:37.731Z,96.10
2019-02-02T19:07:04.475Z,95.80
2019-02-02T19:09:30.924Z,96.10
2019-02-02T19:11:57.623Z,96.30
2019-02-02T19:14:25.272Z,96.40
2019-02-02T19:17:00.773Z,96.40
2019-02-02T19:19:20.326Z,96.40
2019-02-02T19:21:46.944Z,96.60
2019-02-02T19:24:13.532Z,96.30
2019-02-02T19:26:40.184Z,96.10
2019-02-02T19:29:06.727Z,96.20
2019-02-02T19:31:33.362Z,96.40
2019-02-02T19:33:59.996Z,96.40
2019-02-02T19:36:28.779Z,96.50
2019-02-02T19:38:55.202Z,96.50
2019-02-02T19:41:21.917Z,96.40
2019-02-02T19:43:48.519Z,96.30
2019-02-02T19:46:15.005Z,96.30
2019-02-02T19:48:41.651Z,96.20
2019-02-02T19:51:08.327Z,96.30
2019-02-02T19:53:34.893Z,96.20
2019-02-02T19:56:01.663Z,96.00
2019-02-02T19:58:28.156Z,96.00
2019-02-02T20:00:54.860Z,95.90
2019-02-02T20:03:21.408Z,95.90
2019-02-02T20:05:48.082Z,96.10
2019-02-02T20:08:14.540Z,96.40
2019-02-02T20:10:41.175Z,96.70
2019-02-02T20:13:07.700Z,96.90
2019-02-02T20:15:34.340Z,97.00
2019-02-02T20:18:09.342Z,96.80
2019-02-02T20:20:29.507Z,96.90
2019-02-02T20:22:56.286Z,97.20
2019-02-02T20:25:23.068Z,97.20
2019-02-02T20:27:49.797Z,97.20
2019-02-02T20:30:21.368Z,96.90
2019-02-02T20:32:47.923Z,96.70
2019-02-02T20:35:15.135Z,96.90
2019-02-02T20:37:42.226Z,97.00
2019-02-02T20:40:12.026Z,97.00
2019-02-02T20:42:38.714Z,97.20
2019-02-02T20:45:08.722Z,97.10
2019-02-02T20:47:35.366Z,97.30
2019-02-02T20:50:02.252Z,97.10
2019-02-02T20:52:28.824Z,96.80
2019-02-02T20:54:55.584Z,96.80
2019-02-02T20:57:22.166Z,96.90
2019-02-02T20:59:48.736Z,97.10
2019-02-02T21:02:15.330Z,96.90
2019-02-02T21:04:42.044Z,96.90
2019-02-02T21:07:08.657Z,96.90
2019-02-02T21:09:35.302Z,97.00
2019-02-02T21:12:01.926Z,97.10
2019-02-02T21:14:28.748Z,97.30
2019-02-02T21:16:58.400Z,97.20
2019-02-02T21:19:25.053Z,97.10
2019-02-02T21:21:51.743Z,97.20
2019-02-02T21:24:18.240Z,97.50
2019-02-02T21:26:44.791Z,97.70
2019-02-02T21:29:11.357Z,97.90
2019-02-02T21:31:37.977Z,97.50
2019-02-02T21:34:04.627Z,97.40
2019-02-02T21:36:31.364Z,97.40
2019-02-02T21:38:57.998Z,97.40
2019-02-02T21:41:24.656Z,97.50
2019-02-02T21:43:51.229Z,97.80
2019-02-02T21:46:17.785Z,97.70
2019-02-02T21:48:44.382Z,97.60
2019-02-02T21:51:11.086Z,97.50
2019-02-02T21:53:37.649Z,97.50
2019-02-02T21:56:04.272Z,97.30
2019-02-02T21:58:30.836Z,97.50
2019-02-02T22:00:57.478Z,97.80
2019-02-02T22:03:24.337Z,97.70
2019-02-02T22:05:50.874Z,97.90
2019-02-02T22:08:17.485Z,98.10
2019-02-02T22:10:44.150Z,98.10
2019-02-02T22:13:10.858Z,97.90
2019-02-02T22:15:37.487Z,98.00
2019-02-02T22:18:04.172Z,98.00
2019-02-02T22:20:31.971Z,97.80
2019-02-02T22:22:58.554Z,97.90
2019-02-02T22:25:28.632Z,98.00
2019-02-02T22:27:55.868Z,98.00
2019-02-02T22:30:27.502Z,98.00
2019-02-02T22:32:54.172Z,98.10
2019-02-02T22:35:20.812Z,98.10
2019-02-02T22:37:47.362Z,97.80
2019-02-02T22:40:16.774Z,97.60
2019-02-02T22:42:51.472Z,97.70
2019-02-02T22:45:19.178Z,97.80
2019-02-02T22:47:45.722Z,97.90
2019-02-02T22:50:22.259Z,97.90
2019-02-02T22:52:49.045Z,97.90
2019-02-02T22:55:17.255Z,97.90
2019-02-02T22:57:43.803Z,97.90
2019-02-02T23:00:51.827Z,97.90
2019-02-02T23:03:31.091Z,97.90
2019-02-02T23:06:10.200Z,98.20
2019-02-02T23:09:04.232Z,98.30
2019-02-02T23:11:37.238Z,98.30
2019-02-02T23:14:24.493Z,98.30
2019-02-02T23:16:51.277Z,98.20
2019-02-02T23:19:17.866Z,98.20
2019-02-02T23:21:44.580Z,98.40
2019-02-02T23:24:11.337Z,98.50
2019-02-02T23:26:39.493Z,98.70
2019-02-02T23:29:06.768Z,98.70
2019-02-02T23:31:33.310Z,98.70
2019-02-02T23:34:03.413Z,98.80
2019-02-02T23:36:30.127Z,98.80
2019-02-02T23:38:59.690Z,98.80
2019-02-02T23:41:26.345Z,98.50
2019-02-02T23:43:53.486Z,98.50
2019-02-02T23:46:20.109Z,98.50
2019-02-02T23:48:46.879Z,98.60
2019-02-02T23:51:13.670Z,98.60
2019-02-02T23:53:40.374Z,98.70
2019-02-02T23:56:06.948Z,98.40
2019-02-02T23:58:33.621Z,98.20
